Time;durP1;ratioP1;P1;durP2;ratioP2;P2;SDS_P1;SDS_P2;PMS_P1;PMS_P2;Temp;Humidity;BMP_temperature;BMP_pressure;BME280_temperature;BME280_humidity;BME280_pressure;Samples;Min_cycle;Max_cycle;Signal;HPM_P1;HPM_P2
2023/05/07 00:03:52;;;;;;;17.8;12.7;;;;;;;12;83;98780;;;;
2023/05/07 00:13:52;;;;;;;18.4;13;;;;;;;12;82.9;98790;;;;
2023/05/07 00:24:52;;;;;;;18.4;13;;;;;;;12;83.1;98780;;;;
2023/05/07 00:34:52;;;;;;;20.4;15.5;;;;;;;11.9;83.3;98790;;;;
2023/05/07 00:45:52;;;;;;;20.4;15.5;;;;;;;11.7;83.7;98790;;;;
2023/05/07 00:56:52;;;;;;;20.4;15.5;;;;;;;11.7;83.8;98800;;;;
2023/05/07 01:07:52;;;;;;;20.9;15.4;;;;;;;11.7;84;98800;;;;
2023/05/07 01:18:52;;;;;;;20.9;15.4;;;;;;;11.6;84.1;98800;;;;
2023/05/07 01:29:52;;;;;;;20.9;15.4;;;;;;;11.6;84.6;98800;;;;
2023/05/07 01:39:52;;;;;;;18.4;14.3;;;;;;;11.6;84.5;98800;;;;
2023/05/07 01:50:52;;;;;;;18.4;14.3;;;;;;;11.6;84.7;98810;;;;
2023/05/07 02:00:52;;;;;;;18.4;14.3;;;;;;;11.5;84.8;98810;;;;
2023/05/07 02:11:52;;;;;;;22.1;16;;;;;;;11.5;84.5;98810;;;;
2023/05/07 02:21:53;;;;;;;22.1;16;;;;;;;11.3;84;98820;;;;
2023/05/07 02:31:52;;;;;;;22.1;16;;;;;;;11.1;84;98830;;;;
2023/05/07 02:42:52;;;;;;;17.8;12.4;;;;;;;10.5;85.4;98840;;;;
2023/05/07 02:52:52;;;;;;;17.8;12.4;;;;;;;10.3;85.6;98840;;;;
2023/05/07 03:02:52;;;;;;;17.8;12.4;;;;;;;10.2;85.7;98840;;;;
2023/05/07 03:13:52;;;;;;;16.2;10.3;;;;;;;10.2;85.6;98850;;;;
2023/05/07 03:24:52;;;;;;;16.2;10.3;;;;;;;10.1;85.7;98870;;;;
2023/05/07 03:35:52;;;;;;;12.8;7.7;;;;;;;10;86;98870;;;;
2023/05/07 03:46:52;;;;;;;12.8;7.7;;;;;;;9.9;85.8;98890;;;;
2023/05/07 03:57:52;;;;;;;12.8;7.7;;;;;;;9.8;85.5;98900;;;;
2023/05/07 04:07:52;;;;;;;9.6;4.9;;;;;;;9.7;85.6;98910;;;;
2023/05/07 04:17:52;;;;;;;9.6;4.9;;;;;;;9.6;85.9;98910;;;;
2023/05/07 04:28:52;;;;;;;9.6;4.9;;;;;;;9.6;85.6;98920;;;;
2023/05/07 04:38:52;;;;;;;6.8;3.3;;;;;;;9.6;85.2;98940;;;;
2023/05/07 04:48:52;;;;;;;6.8;3.3;;;;;;;9.5;85.8;98950;;;;
2023/05/07 04:59:52;;;;;;;6.8;3.3;;;;;;;9.3;85.9;98970;;;;
2023/05/07 05:10:52;;;;;;;3.8;1.8;;;;;;;9.2;85.9;98980;;;;
2023/05/07 05:21:52;;;;;;;3.8;1.8;;;;;;;9.1;85.7;98980;;;;
2023/05/07 05:32:52;;;;;;;3.8;1.8;;;;;;;9.1;85.4;99000;;;;
2023/05/07 05:43:53;;;;;;;4.5;1.6;;;;;;;9.2;84.8;99010;;;;
2023/05/07 05:53:52;;;;;;;4.5;1.6;;;;;;;9.2;84.8;99020;;;;
2023/05/07 06:03:52;;;;;;;3.6;1.9;;;;;;;9;85.1;99030;;;;
2023/05/07 06:14:52;;;;;;;3.6;1.9;;;;;;;8.9;85;99040;;;;
2023/05/07 06:24:53;;;;;;;3.6;1.9;;;;;;;8.8;85;99060;;;;
2023/05/07 06:35:52;;;;;;;5.6;1.5;;;;;;;8.4;85.8;99060;;;;
2023/05/07 06:45:53;;;;;;;5.6;1.5;;;;;;;8.4;86.1;99070;;;;
2023/05/07 06:56:52;;;;;;;5.6;1.5;;;;;;;8.5;85.9;99080;;;;
2023/05/07 07:07:52;;;;;;;3.5;1.9;;;;;;;8.5;85.3;99080;;;;
2023/05/07 07:17:52;;;;;;;3.5;1.9;;;;;;;8.6;84.8;99090;;;;
2023/05/07 07:27:52;;;;;;;3.5;1.9;;;;;;;8.7;83.9;99110;;;;
2023/05/07 07:38:52;;;;;;;3.8;1.7;;;;;;;8.7;83.3;99130;;;;
2023/05/07 07:48:53;;;;;;;3.8;1.7;;;;;;;8.7;83.1;99140;;;;
2023/05/07 07:59:52;;;;;;;3.8;1.7;;;;;;;8.6;82.5;99140;;;;
2023/05/07 08:09:52;;;;;;;3.5;1.6;;;;;;;8.6;83;99150;;;;
2023/05/07 08:19:52;;;;;;;3.5;1.6;;;;;;;8.5;83.6;99160;;;;
2023/05/07 08:29:52;;;;;;;3.5;1.6;;;;;;;8.7;82.4;99170;;;;
2023/05/07 08:39:52;;;;;;;3.5;1.6;;;;;;;8.6;82.1;99190;;;;
2023/05/07 08:49:53;;;;;;;3.5;1.6;;;;;;;8.7;81.9;99200;;;;
2023/05/07 09:00:52;;;;;;;3.5;1.6;;;;;;;8.5;81.9;99210;;;;
2023/05/07 09:10:53;;;;;;;3.9;1.8;;;;;;;8.4;82.4;99220;;;;
2023/05/07 09:20:52;;;;;;;3.9;1.8;;;;;;;8.4;82.2;99230;;;;
2023/05/07 09:30:52;;;;;;;3.9;1.8;;;;;;;8.3;82.1;99240;;;;
2023/05/07 09:41:54;;;;;;;4.1;2.6;;;;;;;8.5;82;99260;;;;
2023/05/07 09:51:52;;;;;;;4.1;2.6;;;;;;;8.5;81.5;99260;;;;
2023/05/07 10:01:53;;;;;;;4.1;2.6;;;;;;;8.5;81.3;99270;;;;
2023/05/07 10:11:53;;;;;;;6.1;2.9;;;;;;;8.5;81.1;99270;;;;
2023/05/07 10:21:53;;;;;;;6.1;2.9;;;;;;;8.7;80.3;99290;;;;
2023/05/07 10:31:53;;;;;;;6.1;2.9;;;;;;;8.8;80.5;99300;;;;
2023/05/07 10:42:52;;;;;;;5.3;2.9;;;;;;;8.6;80.6;99310;;;;
2023/05/07 10:52:53;;;;;;;5.3;2.9;;;;;;;8.8;80.3;99310;;;;
2023/05/07 11:03:53;;;;;;;6.2;4.5;;;;;;;8.9;79.9;99320;;;;
2023/05/07 11:14:53;;;;;;;6.2;4.5;;;;;;;9;79.5;99320;;;;
2023/05/07 11:25:52;;;;;;;6.2;4.5;;;;;;;8.7;80.3;99320;;;;
2023/05/07 11:35:53;;;;;;;7.1;3.9;;;;;;;8.7;80.6;99330;;;;
2023/05/07 11:46:53;;;;;;;7.1;3.9;;;;;;;8.8;80.4;99340;;;;
2023/05/07 11:56:53;;;;;;;7.1;3.9;;;;;;;8.5;80.8;99350;;;;
2023/05/07 12:07:53;;;;;;;6.4;3.5;;;;;;;8.7;79.2;99360;;;;
2023/05/07 12:18:54;;;;;;;6.4;3.5;;;;;;;8.7;79.5;99360;;;;
2023/05/07 12:28:52;;;;;;;6.4;3.5;;;;;;;9.1;77.7;99360;;;;
2023/05/07 12:38:53;;;;;;;5.4;3;;;;;;;9.2;77.3;99370;;;;
2023/05/07 12:49:53;;;;;;;5.4;3;;;;;;;8.8;78.1;99370;;;;
2023/05/07 13:00:53;;;;;;;5.4;3;;;;;;;8.8;78.3;99380;;;;
2023/05/07 13:10:53;;;;;;;3.3;2.3;;;;;;;8.9;77.5;99390;;;;
2023/05/07 13:20:53;;;;;;;3.3;2.3;;;;;;;8.5;78.3;99390;;;;
2023/05/07 13:30:53;;;;;;;3.3;2.3;;;;;;;8.6;78.3;99400;;;;
2023/05/07 13:40:53;;;;;;;8.1;3.9;;;;;;;8.4;78.5;99400;;;;
2023/05/07 13:50:53;;;;;;;8.1;3.9;;;;;;;8.4;78.3;99400;;;;
2023/05/07 14:00:53;;;;;;;8.1;3.9;;;;;;;8.6;77.8;99390;;;;
2023/05/07 14:10:53;;;;;;;6.8;3.5;;;;;;;8.4;77.3;99400;;;;
2023/05/07 14:20:53;;;;;;;6.8;3.5;;;;;;;8.5;77.3;99420;;;;
2023/05/07 14:30:53;;;;;;;6.8;3.5;;;;;;;8.6;77.2;99420;;;;
2023/05/07 14:40:55;;;;;;;7.6;3.4;;;;;;;8.5;76.8;99430;;;;
2023/05/07 14:51:53;;;;;;;7.6;3.4;;;;;;;8.7;76.6;99450;;;;
2023/05/07 15:01:53;;;;;;;7.6;3.4;;;;;;;8.5;76.5;99450;;;;
2023/05/07 15:11:53;;;;;;;8.6;5;;;;;;;8.5;77.2;99450;;;;
2023/05/07 15:22:53;;;;;;;8.6;5;;;;;;;8.4;78;99460;;;;
2023/05/07 15:32:53;;;;;;;7.5;4.3;;;;;;;8.2;78.2;99460;;;;
2023/05/07 15:43:53;;;;;;;7.5;4.3;;;;;;;8;78.3;99480;;;;
2023/05/07 15:53:53;;;;;;;7.5;4.3;;;;;;;7.7;79.4;99470;;;;
2023/05/07 16:03:53;;;;;;;6.2;3.6;;;;;;;7.7;80.5;99480;;;;
2023/05/07 16:14:53;;;;;;;6.2;3.6;;;;;;;7.6;81;99490;;;;
2023/05/07 16:25:53;;;;;;;6.2;3.6;;;;;;;7.6;81.1;99490;;;;
2023/05/07 16:35:53;;;;;;;6.8;4;;;;;;;7.4;81.4;99490;;;;
2023/05/07 16:46:53;;;;;;;6.8;4;;;;;;;7.6;80.4;99490;;;;
2023/05/07 16:56:53;;;;;;;6.8;4;;;;;;;7.5;80.5;99490;;;;
2023/05/07 17:06:53;;;;;;;8.8;4.8;;;;;;;7.4;80.8;99500;;;;
2023/05/07 17:16:53;;;;;;;8.8;4.8;;;;;;;7.3;81.1;99500;;;;
2023/05/07 17:27:53;;;;;;;8.8;4.8;;;;;;;7.2;81.1;99500;;;;
2023/05/07 17:37:53;;;;;;;9.3;4.6;;;;;;;7.2;81;99520;;;;
2023/05/07 17:47:53;;;;;;;9.3;4.6;;;;;;;7.3;81.2;99520;;;;
2023/05/07 17:58:53;;;;;;;9.3;4.6;;;;;;;7.2;81.5;99550;;;;
2023/05/07 18:08:53;;;;;;;8.7;4.5;;;;;;;7.2;81.1;99550;;;;
2023/05/07 18:19:53;;;;;;;8.7;4.5;;;;;;;7.1;81.2;99570;;;;
2023/05/07 18:29:53;;;;;;;8.7;4.5;;;;;;;7;81.5;99570;;;;
2023/05/07 18:40:55;;;;;;;10.6;5.5;;;;;;;7;81.7;99580;;;;
2023/05/07 18:50:53;;;;;;;10.6;5.5;;;;;;;7;81.7;99580;;;;
2023/05/07 19:00:54;;;;;;;10.6;5.5;;;;;;;7;82;99590;;;;
2023/05/07 19:10:53;;;;;;;8.8;5;;;;;;;7;82.4;99600;;;;
2023/05/07 19:21:53;;;;;;;8.8;5;;;;;;;6.9;82.5;99600;;;;
2023/05/07 19:31:53;;;;;;;8.8;5;;;;;;;6.7;82.7;99600;;;;
2023/05/07 19:41:53;;;;;;;9.9;5.2;;;;;;;6.7;82.3;99610;;;;
2023/05/07 19:51:53;;;;;;;9.9;5.2;;;;;;;6.7;82.7;99610;;;;
2023/05/07 20:01:53;;;;;;;9.9;5.2;;;;;;;6.6;83.1;99610;;;;
2023/05/07 20:11:53;;;;;;;8.8;4.1;;;;;;;6.6;83.3;99610;;;;
2023/05/07 20:21:53;;;;;;;8.8;4.1;;;;;;;6.6;83.2;99620;;;;
2023/05/07 20:31:53;;;;;;;8.8;4.1;;;;;;;6.7;82.7;99620;;;;
2023/05/07 20:41:54;;;;;;;8.2;3.7;;;;;;;6.7;82.5;99620;;;;
2023/05/07 20:51:53;;;;;;;8.2;3.7;;;;;;;6.6;82.6;99620;;;;
2023/05/07 21:01:55;;;;;;;8.2;3.7;;;;;;;6.7;82.5;99640;;;;
2023/05/07 21:11:53;;;;;;;8.1;3.6;;;;;;;6.6;82.7;99650;;;;
2023/05/07 21:21:56;;;;;;;8.1;3.6;;;;;;;6.5;82.7;99650;;;;
2023/05/07 21:31:53;;;;;;;8.1;3.6;;;;;;;6.4;82.7;99650;;;;
2023/05/07 21:41:54;;;;;;;8.2;4.7;;;;;;;6.5;82.6;99660;;;;
2023/05/07 21:51:54;;;;;;;8.2;4.7;;;;;;;6.6;82.6;99660;;;;
2023/05/07 22:01:54;;;;;;;8.2;4.7;;;;;;;6.5;82.2;99660;;;;
2023/05/07 22:11:54;;;;;;;7;3.7;;;;;;;6.4;82.2;99660;;;;
2023/05/07 22:22:54;;;;;;;7;3.7;;;;;;;6.4;82.5;99660;;;;
2023/05/07 22:32:54;;;;;;;5.7;3.4;;;;;;;6.5;82.5;99660;;;;
2023/05/07 22:43:54;;;;;;;5.7;3.4;;;;;;;6.5;82.4;99670;;;;
2023/05/07 22:53:54;;;;;;;5.7;3.4;;;;;;;6.4;82;99650;;;;
2023/05/07 23:04:54;;;;;;;7.9;3.4;;;;;;;6.4;81.9;99650;;;;
2023/05/07 23:14:54;;;;;;;7.9;3.4;;;;;;;6.3;82;99640;;;;
2023/05/07 23:24:54;;;;;;;7.9;3.4;;;;;;;6.2;82.2;99640;;;;
2023/05/07 23:34:55;;;;;;;7.1;3;;;;;;;6.2;82.6;99640;;;;
2023/05/07 23:45:54;;;;;;;7.1;3;;;;;;;6.2;82.8;99630;;;;
2023/05/07 23:56:54;;;;;;;7.1;3;;;;;;;6.2;82.7;99630;;;;
